Time;durP1;ratioP1;P1;durP2;ratioP2;P2;SDS_P1;SDS_P2;PMS_P1;PMS_P2;Temp;Humidity;BMP_temperature;BMP_pressure;BME280_temperature;BME280_humidity;BME280_pressure;Samples;Min_cycle;Max_cycle;Signal;HPM_P1;HPM_P2
2023/08/21 00:00:39;;;;;;;10.00;7.93;;;;;;;27.97;57.32;99206.38;7001821;28;20229;-85
2023/08/21 00:04:00;;;;;;;7.43;6.60;;;;;;;28.47;56.00;99199.78;7001719;28;20367;-86
2023/08/21 00:07:22;;;;;;;7.53;6.20;;;;;;;28.53;55.11;99173.56;7001386;28;20213;-85
2023/08/21 00:10:43;;;;;;;8.33;7.20;;;;;;;28.19;56.67;99198.13;7002014;28;20231;-85
2023/08/21 00:14:05;;;;;;;11.50;7.50;;;;;;;27.92;57.41;99206.50;7002042;28;20247;-85
2023/08/21 00:17:28;;;;;;;9.13;6.77;;;;;;;28.13;57.46;99206.91;6999493;28;20254;-85
2023/08/21 00:20:58;;;;;;;11.20;7.07;;;;;;;27.81;58.16;99210.59;6976733;28;20261;-84
2023/08/21 00:24:34;;;;;;;9.83;7.00;;;;;;;27.84;58.13;99207.19;7000238;28;20279;-85
2023/08/21 00:27:55;;;;;;;7.87;6.80;;;;;;;28.13;57.25;99207.69;7001095;28;20298;-85
2023/08/21 00:31:17;;;;;;;8.03;7.23;;;;;;;28.29;56.42;99203.47;7001110;28;20621;-84
2023/08/21 00:34:40;;;;;;;7.87;6.80;;;;;;;28.12;57.16;99203.28;7001491;28;20320;-83
2023/08/21 00:38:02;;;;;;;9.60;7.30;;;;;;;27.46;57.32;99141.13;7001405;28;20345;-84
2023/08/21 00:41:25;;;;;;;8.87;6.50;;;;;;;27.82;57.45;99195.59;7001866;28;20212;-83
2023/08/21 00:44:46;;;;;;;7.97;7.17;;;;;;;27.43;58.10;99137.03;7001906;28;20232;-84
2023/08/21 00:48:08;;;;;;;8.63;6.63;;;;;;;27.88;57.49;99163.03;7001229;28;20252;-83
2023/08/21 00:51:31;;;;;;;11.30;7.70;;;;;;;28.12;57.23;99191.34;7004710;28;20236;-84
2023/08/21 00:54:52;;;;;;;7.83;7.03;;;;;;;27.78;57.74;99200.09;7003468;28;20696;-84
2023/08/21 00:58:14;;;;;;;8.63;7.80;;;;;;;27.39;59.10;99177.56;7000510;28;20295;-83
2023/08/21 01:01:43;;;;;;;8.70;7.20;;;;;;;27.36;58.76;99166.28;6996497;28;20335;-84
2023/08/21 01:05:05;;;;;;;9.50;7.67;;;;;;;27.55;59.02;99203.84;6993505;28;20343;-84
2023/08/21 01:08:33;;;;;;;7.63;6.77;;;;;;;27.79;57.25;99167.69;6973717;28;20811;-84
2023/08/21 01:12:00;;;;;;;8.20;6.60;;;;;;;27.83;57.42;99194.47;6980943;28;20658;-84
2023/08/21 01:15:21;;;;;;;7.73;6.93;;;;;;;27.68;58.33;99205.81;6999330;28;20265;-85
2023/08/21 01:18:44;;;;;;;8.30;7.50;;;;;;;27.57;58.20;99196.06;6998721;28;20290;-84
2023/08/21 01:22:06;;;;;;;8.87;7.43;;;;;;;27.28;59.83;99197.41;6999068;28;20312;-83
2023/08/21 01:25:29;;;;;;;11.80;7.93;;;;;;;27.27;59.19;99185.53;6999259;28;20298;-84
2023/08/21 01:28:50;;;;;;;10.10;8.27;;;;;;;27.00;59.92;99184.59;6999003;28;20234;-84
2023/08/21 01:32:28;;;;;;;9.33;8.43;;;;;;;27.27;59.80;99199.38;6993726;28;20251;-83
2023/08/21 01:35:50;;;;;;;8.50;7.60;;;;;;;27.46;58.58;99199.31;6997906;28;20219;-84
2023/08/21 01:39:11;;;;;;;8.40;7.27;;;;;;;27.70;57.68;99198.03;6998293;28;20287;-84
2023/08/21 01:42:53;;;;;;;11.10;7.60;;;;;;;27.32;58.24;99188.19;6997515;28;20362;-84
2023/08/21 01:46:14;;;;;;;8.57;7.60;;;;;;;27.48;58.21;99206.19;6998105;28;20273;-84
2023/08/21 01:49:36;;;;;;;8.83;7.93;;;;;;;27.19;59.24;99185.41;6998714;28;20365;-84
2023/08/21 01:52:57;;;;;;;8.70;7.80;;;;;;;26.75;60.81;99194.13;6998490;28;20254;-83
2023/08/21 01:56:19;;;;;;;8.50;7.70;;;;;;;26.96;60.47;99187.13;6998522;28;20271;-83
2023/08/21 01:59:50;;;;;;;8.87;7.60;;;;;;;27.43;59.01;99191.63;6993429;28;20195;-84
2023/08/21 02:03:11;;;;;;;11.60;7.87;;;;;;;27.31;58.83;99182.97;6998465;28;20816;-83
2023/08/21 02:06:33;;;;;;;11.37;7.80;;;;;;;27.50;58.00;99187.34;6997169;28;20253;-83
2023/08/21 02:10:00;;;;;;;8.43;7.57;;;;;;;26.75;59.25;99116.66;6997149;28;20213;-85
2023/08/21 02:13:22;;;;;;;9.93;8.07;;;;;;;26.94;59.86;99167.25;6998632;28;20840;-83
2023/08/21 02:16:45;;;;;;;8.33;7.57;;;;;;;27.44;58.27;99190.50;6998338;28;20292;-84
2023/08/21 02:20:07;;;;;;;9.23;8.37;;;;;;;26.78;59.28;99160.31;6999163;28;20314;-83
2023/08/21 02:23:29;;;;;;;9.30;8.40;;;;;;;26.86;60.21;99180.94;6998714;28;20223;-85
2023/08/21 02:26:51;;;;;;;10.20;8.33;;;;;;;27.11;59.87;99195.19;6998321;28;20229;-84
2023/08/21 02:30:13;;;;;;;8.33;7.53;;;;;;;27.09;59.57;99180.84;6998590;28;20631;-83
2023/08/21 02:33:36;;;;;;;9.27;6.90;;;;;;;26.72;58.06;99077.72;6998358;28;20324;-83
2023/08/21 02:36:59;;;;;;;7.90;7.20;;;;;;;27.38;58.48;99191.72;6991751;28;20255;-85
2023/08/21 02:40:21;;;;;;;8.60;7.90;;;;;;;26.71;59.60;99148.81;6997069;28;20339;-85
2023/08/21 02:43:42;;;;;;;9.33;8.40;;;;;;;26.69;60.72;99178.72;6996242;28;20363;-86
2023/08/21 02:47:04;;;;;;;9.20;8.20;;;;;;;26.87;60.13;99185.34;6995990;28;20643;-85
2023/08/21 02:50:26;;;;;;;9.80;8.73;;;;;;;26.77;60.40;99188.31;6996360;28;20216;-86
2023/08/21 02:53:48;;;;;;;9.63;8.73;;;;;;;26.66;60.81;99195.91;6996235;28;20317;-85
2023/08/21 02:57:10;;;;;;;9.57;8.67;;;;;;;26.69;61.15;99195.34;6996698;28;20370;-86
2023/08/21 03:00:31;;;;;;;8.80;8.10;;;;;;;26.82;60.02;99158.59;6998331;28;20206;-85
2023/08/21 03:03:53;;;;;;;10.10;9.10;;;;;;;26.68;60.68;99188.16;7000864;28;20226;-86
2023/08/21 03:07:16;;;;;;;10.17;8.77;;;;;;;26.62;60.73;99194.06;7000151;28;20300;-85
2023/08/21 03:10:37;;;;;;;10.03;8.97;;;;;;;26.47;61.32;99192.31;7002104;28;20201;-86
2023/08/21 03:13:59;;;;;;;9.50;8.60;;;;;;;26.59;60.86;99184.41;7001931;28;20303;-85
2023/08/21 03:17:20;;;;;;;10.17;9.00;;;;;;;26.26;60.44;99121.81;6994468;28;20620;-84
2023/08/21 03:20:45;;;;;;;10.13;8.27;;;;;;;26.67;60.98;99189.25;6974003;28;20273;-86
2023/08/21 03:24:08;;;;;;;13.50;7.53;;;;;;;27.00;59.09;99193.72;6973976;28;20261;-85
2023/08/21 03:27:29;;;;;;;9.30;8.27;;;;;;;26.93;59.13;99193.28;7000986;28;20251;-85
2023/08/21 03:30:53;;;;;;;8.40;7.50;;;;;;;26.86;59.08;99206.69;7001767;28;20214;-85
2023/08/21 03:34:15;;;;;;;9.27;8.47;;;;;;;26.89;58.82;99210.81;7001382;28;20337;-86
2023/08/21 03:37:36;;;;;;;7.90;7.20;;;;;;;26.82;59.08;99205.63;7000947;28;20730;-85
2023/08/21 03:40:59;;;;;;;8.20;7.40;;;;;;;26.89;58.64;99205.28;7000837;28;20277;-85
2023/08/21 03:44:21;;;;;;;8.80;7.90;;;;;;;26.50;59.83;99201.97;7001330;28;20967;-86
2023/08/21 03:47:42;;;;;;;10.60;7.83;;;;;;;26.72;59.12;99204.97;7000926;28;20288;-86
2023/08/21 03:51:04;;;;;;;8.50;7.43;;;;;;;26.84;58.31;99203.38;7000676;28;20280;-85
2023/08/21 03:54:25;;;;;;;7.77;6.97;;;;;;;26.57;58.90;99186.66;7001067;28;20227;-86
2023/08/21 03:57:48;;;;;;;7.90;7.17;;;;;;;26.70;59.03;99213.56;7000331;28;20213;-86
2023/08/21 04:01:10;;;;;;;9.50;7.90;;;;;;;26.64;59.16;99214.78;7000509;28;20699;-85
2023/08/21 04:04:31;;;;;;;10.30;9.20;;;;;;;25.98;60.92;99215.91;7000739;28;20232;-85
2023/08/21 04:07:53;;;;;;;10.77;9.60;;;;;;;25.68;62.47;99221.75;6999822;28;20206;-85
2023/08/21 04:11:14;;;;;;;10.43;9.33;;;;;;;25.80;62.59;99223.00;6999902;28;20335;-85
2023/08/21 04:14:37;;;;;;;13.93;9.20;;;;;;;25.72;62.89;99218.09;7000405;28;20226;-85
2023/08/21 04:17:59;;;;;;;12.50;9.03;;;;;;;25.52;62.18;99185.19;7003078;28;20734;-84
2023/08/21 04:21:20;;;;;;;12.20;8.30;;;;;;;26.03;61.51;99233.28;7016856;28;20189;-84
2023/08/21 04:24:45;;;;;;;9.50;8.33;;;;;;;26.04;61.47;99245.97;7020067;28;20228;-86
2023/08/21 04:28:07;;;;;;;9.43;8.50;;;;;;;26.31;61.11;99248.94;6999775;28;20280;-86
2023/08/21 04:31:30;;;;;;;9.37;8.47;;;;;;;25.95;60.57;99175.06;6972198;28;20267;-86
2023/08/21 04:34:51;;;;;;;8.87;8.07;;;;;;;26.30;60.66;99243.72;6972363;28;20791;-85
2023/08/21 04:38:13;;;;;;;9.30;8.40;;;;;;;25.88;60.77;99203.00;6971700;28;20352;-85
2023/08/21 04:41:34;;;;;;;10.10;9.10;;;;;;;25.89;62.07;99254.41;6982919;28;20293;-85
2023/08/21 04:44:56;;;;;;;9.63;8.60;;;;;;;25.91;62.03;99243.09;6999272;28;20764;-85
2023/08/21 04:48:19;;;;;;;9.30;8.43;;;;;;;26.08;61.49;99232.38;6979533;28;20236;-84
2023/08/21 04:51:40;;;;;;;10.40;8.80;;;;;;;26.36;60.11;99240.56;6986287;28;20668;-85
2023/08/21 04:55:02;;;;;;;10.00;8.77;;;;;;;25.96;61.77;99245.81;6973116;28;20745;-83
2023/08/21 04:58:24;;;;;;;9.17;8.17;;;;;;;26.27;60.80;99247.06;6985874;28;20196;-84
2023/08/21 05:01:45;;;;;;;10.50;8.77;;;;;;;26.27;60.78;99250.66;6983762;28;20206;-82
2023/08/21 05:05:09;;;;;;;9.90;8.47;;;;;;;26.29;60.09;99231.81;6998477;28;20716;-83
2023/08/21 05:08:31;;;;;;;10.37;8.13;;;;;;;26.42;59.73;99255.19;6998697;28;20203;-83
2023/08/21 05:11:52;;;;;;;9.47;8.67;;;;;;;26.27;60.17;99247.06;6980203;28;20323;-83
2023/08/21 05:15:14;;;;;;;9.33;8.40;;;;;;;25.92;61.47;99230.91;6995990;28;20364;-83
2023/08/21 05:18:36;;;;;;;9.97;9.07;;;;;;;25.93;61.47;99247.22;6979927;28;20348;-84
2023/08/21 05:21:59;;;;;;;12.23;10.00;;;;;;;25.88;62.34;99254.69;6971217;28;20237;-82
2023/08/21 05:25:20;;;;;;;10.37;9.27;;;;;;;25.52;62.24;99165.03;6971422;28;20225;-89
2023/08/21 05:28:42;;;;;;;11.17;8.90;;;;;;;26.40;61.47;99262.94;6985960;28;20335;-81
2023/08/21 05:32:04;;;;;;;11.57;8.83;;;;;;;26.55;60.89;99262.78;6993671;28;20261;-83
2023/08/21 05:35:25;;;;;;;9.00;8.20;;;;;;;26.87;60.78;99254.53;6998174;28;20360;-83
2023/08/21 05:38:51;;;;;;;9.00;8.10;;;;;;;27.13;59.75;99261.34;6994938;28;20210;-83
2023/08/21 05:42:12;;;;;;;9.50;7.53;;;;;;;26.92;59.25;99169.50;7001274;28;20232;-82
2023/08/21 05:45:34;;;;;;;8.77;7.93;;;;;;;27.51;58.03;99232.47;6998910;28;20294;-82
2023/08/21 05:48:55;;;;;;;9.17;8.27;;;;;;;27.59;57.84;99265.00;6986186;28;20227;-83
2023/08/21 05:52:17;;;;;;;8.80;7.90;;;;;;;27.66;55.49;99132.44;6998731;28;20218;-82
2023/08/21 05:55:41;;;;;;;9.43;8.60;;;;;;;28.12;55.80;99221.88;6993006;28;20531;-89
2023/08/21 05:59:03;;;;;;;12.63;8.63;;;;;;;27.60;57.29;99189.09;6999557;28;20231;-82
2023/08/21 06:02:24;;;;;;;8.97;8.17;;;;;;;27.27;57.46;99160.63;6998795;28;20218;-82
2023/08/21 06:05:46;;;;;;;9.73;8.83;;;;;;;27.53;57.37;99189.47;6984922;28;20226;-83
2023/08/21 06:09:08;;;;;;;12.97;8.13;;;;;;;28.65;57.02;99284.00;6998429;28;20210;-83
2023/08/21 06:12:31;;;;;;;8.83;7.87;;;;;;;29.08;55.45;99258.31;6998747;28;20639;-84
2023/08/21 06:15:53;;;;;;;9.73;7.83;;;;;;;29.09;55.29;99259.97;6998063;28;20642;-83
2023/08/21 06:19:14;;;;;;;12.30;7.80;;;;;;;29.90;53.13;99272.63;6998572;28;20347;-83
2023/08/21 06:22:36;;;;;;;8.33;7.30;;;;;;;29.93;52.71;99272.00;6998675;28;20318;-84
2023/08/21 06:25:57;;;;;;;8.00;7.20;;;;;;;30.20;52.31;99258.72;6998234;28;20264;-84
2023/08/21 06:29:21;;;;;;;8.00;7.20;;;;;;;30.85;50.15;99258.75;6998991;28;20206;-84
2023/08/21 06:32:42;;;;;;;8.73;7.80;;;;;;;30.90;49.25;99273.31;6997572;28;20227;-87
2023/08/21 06:36:04;;;;;;;7.53;6.83;;;;;;;30.94;50.99;99279.06;6997718;28;20267;-84
2023/08/21 06:39:26;;;;;;;7.40;6.80;;;;;;;30.56;50.15;99163.84;6997685;28;20205;-83
2023/08/21 06:43:05;;;;;;;8.70;7.07;;;;;;;31.84;48.38;99276.09;6992550;28;20267;-84
2023/08/21 06:46:28;;;;;;;6.90;6.30;;;;;;;32.10;47.43;99280.44;6988562;28;20236;-83
2023/08/21 06:49:50;;;;;;;8.40;7.50;;;;;;;31.55;48.37;99226.59;6998390;28;20273;-83
2023/08/21 06:53:12;;;;;;;8.53;7.07;;;;;;;31.04;49.66;99203.53;6997650;28;20228;-83
2023/08/21 06:56:33;;;;;;;8.43;7.53;;;;;;;31.41;47.33;99141.53;6997833;28;20800;-84
2023/08/21 06:59:55;;;;;;;7.47;6.67;;;;;;;32.13;46.34;99189.66;6997936;28;20195;-83
2023/08/21 07:03:18;;;;;;;9.03;8.13;;;;;;;31.78;48.38;99269.88;6997581;28;20260;-83
2023/08/21 07:06:39;;;;;;;8.60;7.70;;;;;;;32.44;46.52;99282.28;6981018;28;20198;-84
2023/08/21 07:10:01;;;;;;;14.00;7.70;;;;;;;31.92;47.30;99278.88;6999046;28;20255;-85
2023/08/21 07:13:22;;;;;;;10.10;7.90;;;;;;;32.42;46.47;99232.38;6999803;28;20224;-85
2023/08/21 07:16:44;;;;;;;7.90;7.10;;;;;;;33.00;46.25;99279.00;6999499;28;20588;-85
2023/08/21 07:20:08;;;;;;;8.03;7.23;;;;;;;32.32;47.28;99279.41;7000334;28;20204;-85
2023/08/21 07:23:30;;;;;;;9.73;7.60;;;;;;;32.75;45.78;99286.38;6999662;28;20309;-85
2023/08/21 07:26:51;;;;;;;7.83;7.10;;;;;;;32.73;45.03;99235.59;6994589;28;20292;-84
2023/08/21 07:30:13;;;;;;;9.03;6.33;;;;;;;33.97;42.72;99259.50;6989995;28;20228;-84
2023/08/21 07:33:35;;;;;;;9.17;7.57;;;;;;;33.37;43.09;99261.31;7000056;28;20233;-85
2023/08/21 07:36:58;;;;;;;7.80;7.00;;;;;;;33.16;43.68;99238.94;6998708;28;20353;-82
2023/08/21 07:40:19;;;;;;;7.50;6.50;;;;;;;32.73;44.30;99188.13;7000572;28;20204;-83
2023/08/21 07:43:41;;;;;;;9.20;7.53;;;;;;;33.29;42.32;99197.88;6997128;28;20235;-82
2023/08/21 07:47:03;;;;;;;7.83;7.13;;;;;;;33.49;40.29;99150.28;7001890;28;20197;-83
2023/08/21 07:50:27;;;;;;;8.07;6.47;;;;;;;33.81;39.79;99169.03;7008664;28;20208;-83
2023/08/21 07:53:50;;;;;;;9.37;7.13;;;;;;;33.94;41.32;99290.16;7012873;28;20496;-83
2023/08/21 07:57:12;;;;;;;9.27;7.00;;;;;;;34.54;41.29;99291.09;7001425;28;20221;-83
2023/08/21 08:00:34;;;;;;;6.90;6.20;;;;;;;34.76;40.45;99289.81;7002684;28;20205;-83
2023/08/21 08:03:55;;;;;;;8.47;6.30;;;;;;;33.85;41.05;99292.25;7002512;28;20271;-83
2023/08/21 08:07:17;;;;;;;7.03;6.33;;;;;;;34.55;40.08;99284.31;7002471;28;20224;-82
2023/08/21 08:10:40;;;;;;;7.70;6.73;;;;;;;35.17;39.73;99293.16;6975104;28;20234;-83
2023/08/21 08:14:02;;;;;;;6.93;6.23;;;;;;;35.65;38.91;99287.38;6994740;28;20359;-84
2023/08/21 08:17:23;;;;;;;8.17;6.40;;;;;;;35.63;38.20;99286.09;7002061;28;20691;-83
2023/08/21 08:20:45;;;;;;;8.23;6.90;;;;;;;35.26;39.29;99279.00;7002987;28;20229;-83
2023/08/21 08:24:06;;;;;;;9.07;6.63;;;;;;;35.78;38.31;99282.56;7003209;28;20317;-83
2023/08/21 08:27:29;;;;;;;9.87;6.50;;;;;;;36.42;36.91;99283.91;7002998;28;20202;-83
2023/08/21 08:30:51;;;;;;;8.03;6.20;;;;;;;36.56;36.95;99280.63;7004107;28;20213;-83
2023/08/21 08:34:13;;;;;;;6.97;6.30;;;;;;;37.02;35.90;99299.44;6983776;28;20286;-82
2023/08/21 08:37:34;;;;;;;7.40;6.43;;;;;;;36.27;37.63;99292.34;7004138;28;20255;-83
2023/08/21 08:40:56;;;;;;;11.57;6.57;;;;;;;37.19;35.90;99293.44;7002748;28;20286;-83
2023/08/21 08:44:19;;;;;;;6.83;6.13;;;;;;;37.27;36.15;99298.84;7003367;28;20714;-84
2023/08/21 08:47:42;;;;;;;8.90;6.37;;;;;;;36.26;37.61;99291.50;6974750;28;20238;-83
2023/08/21 08:51:04;;;;;;;7.20;6.30;;;;;;;37.22;35.71;99301.13;6985410;28;20210;-83
2023/08/21 08:54:26;;;;;;;8.63;7.03;;;;;;;35.93;38.57;99279.78;7003002;28;20225;-82
2023/08/21 08:57:47;;;;;;;6.93;6.23;;;;;;;37.03;36.58;99279.34;7004036;28;20725;-82
2023/08/21 09:01:12;;;;;;;8.13;5.87;;;;;;;37.55;35.99;99287.41;7005100;28;20328;-86
2023/08/21 09:04:34;;;;;;;7.07;6.30;;;;;;;37.27;35.86;99241.75;7007407;28;20218;-85
2023/08/21 09:08:11;;;;;;;7.67;6.50;;;;;;;37.39;35.69;99281.81;7003125;28;20667;-84
2023/08/21 09:11:33;;;;;;;8.00;6.40;;;;;;;36.44;38.22;99284.34;6974304;28;20260;-83
2023/08/21 09:14:55;;;;;;;8.90;6.70;;;;;;;36.81;37.77;99284.88;6972842;28;20222;-84
2023/08/21 09:18:18;;;;;;;8.03;6.40;;;;;;;36.82;37.46;99281.69;6971311;28;20293;-85
2023/08/21 09:21:39;;;;;;;8.57;6.30;;;;;;;37.21;36.69;99280.63;6971900;28;20565;-85
2023/08/21 09:25:06;;;;;;;9.13;6.50;;;;;;;37.82;36.38;99273.06;6971228;28;20597;-85
2023/08/21 09:28:28;;;;;;;7.83;6.10;;;;;;;37.85;35.77;99261.03;6978192;28;20201;-84
2023/08/21 09:31:51;;;;;;;9.13;7.20;;;;;;;37.49;36.08;99274.78;6998321;28;20209;-86
2023/08/21 09:35:16;;;;;;;8.73;6.50;;;;;;;38.02;35.01;99271.06;6997735;28;20218;-84
2023/08/21 09:38:39;;;;;;;11.83;6.67;;;;;;;36.76;37.04;99269.13;6998293;28;20238;-87
2023/08/21 09:42:01;;;;;;;7.37;6.60;;;;;;;36.46;37.03;99270.75;6998687;28;20392;-88
2023/08/21 09:45:23;;;;;;;8.33;6.60;;;;;;;37.40;36.53;99260.09;6991993;28;20232;-87
2023/08/21 09:48:45;;;;;;;10.37;6.50;;;;;;;37.85;34.47;99201.91;6999331;28;20189;-87
2023/08/21 09:52:10;;;;;;;6.77;6.13;;;;;;;37.85;33.93;99190.66;6999742;28;20234;-85
2023/08/21 09:55:33;;;;;;;8.83;6.27;;;;;;;38.26;34.08;99260.22;6999801;28;20210;-85
2023/08/21 09:58:54;;;;;;;6.67;6.10;;;;;;;38.54;33.82;99252.25;6998436;28;20213;-84
2023/08/21 10:02:16;;;;;;;9.33;6.67;;;;;;;36.47;36.52;99263.13;6999865;28;20716;-84
2023/08/21 10:05:39;;;;;;;6.73;6.17;;;;;;;37.34;35.27;99255.97;6999194;28;20318;-83
2023/08/21 10:09:02;;;;;;;6.37;5.77;;;;;;;38.80;33.33;99231.72;7000362;28;20208;-84
2023/08/21 10:12:24;;;;;;;6.87;6.07;;;;;;;38.95;32.66;99248.47;7000656;28;20223;-83
2023/08/21 10:15:45;;;;;;;10.03;7.83;;;;;;;39.04;32.10;99203.88;6999471;28;20208;-84
2023/08/21 10:19:08;;;;;;;24.57;22.47;;;;;;;39.60;31.66;99252.56;7001102;28;20592;-83
2023/08/21 10:22:46;;;;;;;72.77;64.90;;;;;;;39.21;31.97;99219.41;6998594;28;20226;-86
2023/08/21 10:26:11;;;;;;;18.40;16.17;;;;;;;39.29;31.84;99188.09;6971824;28;20232;-83
2023/08/21 10:29:35;;;;;;;6.87;6.10;;;;;;;39.31;31.16;99142.56;6974600;28;20213;-83
2023/08/21 10:32:58;;;;;;;7.43;5.40;;;;;;;38.97;31.11;99229.16;6972789;28;20226;-83
2023/08/21 10:37:07;;;;;;;6.57;5.70;;;;;;;38.74;31.40;99228.41;6976904;28;20277;-83
2023/08/21 10:40:29;;;;;;;6.43;5.83;;;;;;;38.97;31.69;99228.38;6974622;28;20741;-83
2023/08/21 10:43:51;;;;;;;6.13;5.20;;;;;;;39.36;31.63;99222.06;6972970;28;20237;-84
2023/08/21 10:47:17;;;;;;;6.83;5.13;;;;;;;39.62;30.33;99221.13;6987158;28;20320;-83
2023/08/21 10:50:39;;;;;;;7.25;5.10;;;;;;;39.13;30.71;99130.25;7000668;28;20211;-83
2023/08/21 10:54:11;;;;;;;6.80;6.07;;;;;;;38.81;31.16;99199.50;6998685;28;20229;-83
2023/08/21 10:57:34;;;;;;;6.27;5.33;;;;;;;39.49;31.21;99209.28;7001055;28;20244;-83
2023/08/21 11:01:00;;;;;;;8.32;5.30;;;;;;;40.09;30.37;99219.22;7002582;28;20244;-83
2023/08/21 11:04:22;;;;;;;6.05;5.47;;;;;;;39.26;30.60;99205.75;7001728;28;20233;-83
2023/08/21 11:07:46;;;;;;;6.43;5.73;;;;;;;38.69;31.96;99211.00;7000828;28;20294;-83
2023/08/21 11:11:07;;;;;;;8.53;5.80;;;;;;;37.41;32.76;99186.59;7001414;28;20208;-83
2023/08/21 11:14:35;;;;;;;9.00;5.97;;;;;;;37.09;33.33;99192.75;6988420;28;20260;-83
2023/08/21 11:17:59;;;;;;;5.93;5.43;;;;;;;39.16;30.71;99200.81;6997305;28;20681;-83
2023/08/21 11:21:25;;;;;;;6.73;5.43;;;;;;;39.03;30.75;99190.94;7003143;28;20285;-83
2023/08/21 11:24:48;;;;;;;9.33;5.63;;;;;;;37.59;33.44;99204.66;7003285;28;20257;-83
2023/08/21 11:28:09;;;;;;;7.33;5.10;;;;;;;39.03;31.62;99210.69;7002651;28;20370;-83
2023/08/21 11:31:31;;;;;;;6.93;5.93;;;;;;;39.23;31.75;99212.19;7003957;28;20220;-83
2023/08/21 11:34:55;;;;;;;6.32;5.75;;;;;;;40.11;30.01;99211.19;7003706;28;20230;-82
2023/08/21 11:38:17;;;;;;;6.97;5.15;;;;;;;40.24;28.94;99184.25;7001876;28;20339;-83
2023/08/21 11:41:53;;;;;;;6.75;5.15;;;;;;;40.20;29.90;99205.22;7003926;28;20239;-83
2023/08/21 11:45:15;;;;;;;7.05;5.35;;;;;;;40.88;28.30;99194.00;6995145;28;20347;-83
2023/08/21 11:48:38;;;;;;;6.20;5.55;;;;;;;40.27;29.30;99189.16;7001631;28;20662;-83
2023/08/21 11:52:01;;;;;;;5.50;5.00;;;;;;;40.33;29.03;99192.41;7002819;28;20240;-82
2023/08/21 11:55:23;;;;;;;6.82;5.43;;;;;;;39.98;30.53;99184.44;7001357;28;20233;-82
2023/08/21 11:58:46;;;;;;;6.65;5.35;;;;;;;40.05;28.73;99141.28;6999321;28;20206;-83
2023/08/21 12:02:14;;;;;;;6.88;5.45;;;;;;;39.47;30.15;99182.66;6978977;28;20230;-83
2023/08/21 12:05:35;;;;;;;5.75;4.93;;;;;;;40.16;29.21;99182.59;6982835;28;20246;-84
2023/08/21 12:08:58;;;;;;;8.35;4.97;;;;;;;40.79;28.15;99187.91;6983339;28;20228;-85
2023/08/21 12:12:19;;;;;;;6.15;5.00;;;;;;;40.56;28.33;99176.84;6984275;28;20359;-83
2023/08/21 12:15:41;;;;;;;9.35;4.93;;;;;;;41.06;27.30;99192.09;6974876;28;20344;-85
2023/08/21 12:19:03;;;;;;;7.57;5.50;;;;;;;40.47;28.10;99189.66;6974766;28;20703;-84
2023/08/21 12:22:24;;;;;;;6.30;4.70;;;;;;;41.15;26.21;99184.06;6974250;28;20692;-84
2023/08/21 12:25:47;;;;;;;5.28;4.80;;;;;;;40.72;27.76;99193.53;6974652;28;20321;-83
2023/08/21 12:29:08;;;;;;;5.85;5.20;;;;;;;40.89;27.53;99172.97;6974943;28;20287;-86
2023/08/21 12:32:30;;;;;;;6.43;5.55;;;;;;;40.42;27.65;99158.94;6985251;28;20279;-85
2023/08/21 12:35:52;;;;;;;7.45;5.07;;;;;;;38.68;30.18;99172.72;7000680;28;20308;-84
2023/08/21 12:39:13;;;;;;;7.70;5.13;;;;;;;40.28;28.80;99170.16;6988317;28;20693;-82
2023/08/21 12:42:36;;;;;;;7.10;5.35;;;;;;;39.17;29.01;99100.03;7003238;28;20222;-84
2023/08/21 12:45:58;;;;;;;5.93;5.43;;;;;;;41.16;27.13;99161.03;7002195;28;20312;-83
2023/08/21 12:49:19;;;;;;;6.00;5.05;;;;;;;40.64;27.40;99146.59;7003517;28;20351;-83
2023/08/21 12:52:41;;;;;;;5.75;5.13;;;;;;;40.86;26.54;99128.53;7003529;28;20312;-83
2023/08/21 12:56:03;;;;;;;7.93;5.20;;;;;;;41.15;27.16;99141.59;7002119;28;20214;-82
2023/08/21 12:59:26;;;;;;;7.55;5.18;;;;;;;40.59;27.63;99150.63;7002344;28;20255;-84
2023/08/21 13:02:47;;;;;;;8.48;4.93;;;;;;;40.12;28.90;99141.31;7001783;28;20379;-83
2023/08/21 13:06:09;;;;;;;9.00;5.63;;;;;;;41.13;26.94;99144.03;7000905;28;20324;-83
2023/08/21 13:09:30;;;;;;;8.48;5.43;;;;;;;40.06;29.18;99140.06;7002289;28;20672;-82
2023/08/21 13:12:52;;;;;;;5.50;5.00;;;;;;;39.30;29.52;99138.09;7001283;28;20225;-85
2023/08/21 13:16:15;;;;;;;9.70;5.50;;;;;;;38.41;30.81;99123.16;7003710;28;20229;-82
2023/08/21 13:19:36;;;;;;;7.57;5.57;;;;;;;38.14;30.67;99136.44;7005338;28;20202;-82
2023/08/21 13:22:58;;;;;;;9.93;5.23;;;;;;;36.84;32.87;99046.00;7002094;28;20672;-82
2023/08/21 13:26:20;;;;;;;7.10;5.40;;;;;;;39.28;30.88;99135.69;7001294;28;20716;-82
2023/08/21 13:29:41;;;;;;;5.60;5.20;;;;;;;39.53;29.91;99131.09;7001389;28;20320;-82
2023/08/21 13:33:05;;;;;;;7.57;5.03;;;;;;;39.28;29.52;99112.28;7000772;28;20226;-82
2023/08/21 13:36:28;;;;;;;5.90;5.10;;;;;;;39.37;29.75;99127.72;7000351;28;20190;-82
2023/08/21 13:39:51;;;;;;;9.30;5.40;;;;;;;38.95;30.82;99118.72;7000834;28;20280;-82
2023/08/21 13:43:13;;;;;;;5.83;4.73;;;;;;;38.49;29.51;99034.75;6999653;28;20363;-82
2023/08/21 13:46:34;;;;;;;8.63;4.70;;;;;;;38.82;30.26;99108.06;6994913;28;20218;-82
2023/08/21 13:49:57;;;;;;;5.93;4.72;;;;;;;37.63;30.71;99016.97;7000704;28;20236;-83
2023/08/21 13:53:19;;;;;;;6.70;4.80;;;;;;;38.86;29.88;99104.13;6998842;28;20308;-83
2023/08/21 13:56:40;;;;;;;6.30;5.00;;;;;;;39.20;29.35;99111.34;6998812;28;20284;-84
2023/08/21 14:00:06;;;;;;;6.38;5.15;;;;;;;39.36;28.90;99097.88;6997984;28;20237;-83
2023/08/21 14:03:27;;;;;;;5.47;4.50;;;;;;;38.65;29.57;99101.00;6998367;28;20727;-83
2023/08/21 14:06:50;;;;;;;7.82;4.53;;;;;;;38.44;29.56;99102.72;6997939;28;20326;-83
2023/08/21 14:10:13;;;;;;;6.23;4.67;;;;;;;38.69;29.87;99095.41;6997891;28;20312;-83
2023/08/21 14:13:35;;;;;;;5.33;4.83;;;;;;;38.89;30.06;99085.59;6970457;28;20222;-83
2023/08/21 14:16:58;;;;;;;7.53;4.60;;;;;;;39.14;29.24;99098.00;6969986;28;20234;-83
2023/08/21 14:20:19;;;;;;;7.57;5.00;;;;;;;38.42;29.88;99091.81;6970743;28;20236;-83
2023/08/21 14:23:42;;;;;;;7.07;4.73;;;;;;;39.04;29.40;99091.06;6995881;28;20292;-83
2023/08/21 14:27:04;;;;;;;6.03;4.67;;;;;;;37.86;29.75;99087.28;6997224;28;20310;-82
2023/08/21 14:30:26;;;;;;;7.87;5.40;;;;;;;37.27;30.89;99087.84;6998254;28;20540;-83
2023/08/21 14:33:47;;;;;;;8.43;4.70;;;;;;;37.95;30.46;99083.00;6997163;28;20713;-83
2023/08/21 14:37:11;;;;;;;7.47;4.50;;;;;;;37.42;31.35;99088.94;6997326;28;20294;-82
2023/08/21 14:40:34;;;;;;;5.30;4.80;;;;;;;38.18;29.41;99060.44;6997717;28;20213;-83
2023/08/21 14:43:56;;;;;;;5.60;4.80;;;;;;;37.71;29.90;99069.34;6997726;28;20225;-82
2023/08/21 14:47:19;;;;;;;7.57;4.50;;;;;;;37.86;29.90;99054.31;6997560;28;20221;-84
2023/08/21 14:50:43;;;;;;;8.87;4.80;;;;;;;38.25;29.66;99049.28;6998074;28;20210;-83
2023/08/21 14:54:05;;;;;;;7.00;4.67;;;;;;;38.77;28.32;99060.44;6996203;28;20618;-84
2023/08/21 14:57:28;;;;;;;8.30;4.57;;;;;;;38.25;29.84;99069.81;6970383;28;20244;-83
2023/08/21 15:00:49;;;;;;;4.57;4.10;;;;;;;38.46;29.16;99038.31;6970749;28;20350;-83
2023/08/21 15:04:11;;;;;;;5.30;4.50;;;;;;;38.55;29.24;99050.13;6970017;28;20316;-83
2023/08/21 15:07:32;;;;;;;5.65;4.82;;;;;;;38.74;29.18;99066.88;6969171;28;20364;-83
2023/08/21 15:10:54;;;;;;;7.57;3.97;;;;;;;38.15;30.00;99064.03;6970594;28;20275;-83
2023/08/21 15:14:17;;;;;;;5.63;4.40;;;;;;;38.42;29.02;99065.66;6970262;28;20325;-83
2023/08/21 15:17:38;;;;;;;9.07;4.47;;;;;;;38.03;30.08;99058.63;6968881;28;20259;-86
2023/08/21 15:21:00;;;;;;;8.30;4.97;;;;;;;38.01;29.95;99049.75;6970187;28;20204;-82
2023/08/21 15:24:22;;;;;;;9.90;4.80;;;;;;;37.66;30.75;99030.25;6994476;28;20239;-83
2023/08/21 15:27:44;;;;;;;5.97;4.60;;;;;;;37.95;30.01;99034.34;6981457;28;20236;-88
2023/08/21 15:31:08;;;;;;;8.33;4.83;;;;;;;38.09;30.38;99046.63;6987189;28;20201;-83
2023/08/21 15:34:30;;;;;;;7.20;4.47;;;;;;;38.24;30.00;99040.03;6997933;28;20370;-83
2023/08/21 15:37:51;;;;;;;6.73;4.57;;;;;;;38.61;29.57;99020.41;7001303;28;20214;-83
2023/08/21 15:41:13;;;;;;;6.80;4.40;;;;;;;38.65;28.93;99030.53;6998118;28;20296;-86
2023/08/21 15:44:34;;;;;;;6.10;4.00;;;;;;;38.27;29.88;98962.38;6993777;28;20228;-82
2023/08/21 15:47:58;;;;;;;7.17;4.20;;;;;;;38.61;29.83;99026.84;6992560;28;20258;-85
2023/08/21 15:51:20;;;;;;;7.80;5.00;;;;;;;38.11;30.56;99037.81;6994269;28;20556;-84